Time;durP1;ratioP1;P1;durP2;ratioP2;P2;SDS_P1;SDS_P2;PMS_P1;PMS_P2;Temp;Humidity;BMP_temperature;BMP_pressure;BME280_temperature;BME280_humidity;BME280_pressure;Samples;Min_cycle;Max_cycle;Signal;HPM_P1;HPM_P2
2021/04/11 00:00:25;;;;;;;1.70;1.60;;;17.40;90.50;;;17.28;45.35;100255.69;4947508;28;98904;-57
2021/04/11 00:02:52;;;;;;;3.87;2.30;;;17.40;90.80;;;17.29;45.47;100259.19;4948437;28;98048;-60
2021/04/11 00:05:21;;;;;;;2.07;1.77;;;17.40;90.60;;;17.30;45.15;100259.09;4930151;28;98969;-55
2021/04/11 00:07:47;;;;;;;1.60;1.50;;;17.40;90.40;;;17.30;45.22;100256.41;4934064;28;98258;-53
2021/04/11 00:10:35;;;;;;;1.73;1.60;;;17.40;90.40;;;17.29;45.45;100252.06;4929955;28;98543;-56
2021/04/11 00:13:03;;;;;;;1.97;1.83;;;17.40;90.80;;;17.25;45.51;100251.41;4912849;28;97150;-54
2021/04/11 00:15:30;;;;;;;3.40;3.07;;;17.30;90.60;;;17.20;45.72;100245.53;4948964;28;99055;-56
2021/04/11 00:17:56;;;;;;;4.57;3.07;;;17.20;92.30;;;17.13;46.47;100246.94;4930289;28;96992;-56
2021/04/11 00:20:23;;;;;;;2.53;1.80;;;17.20;92.00;;;17.07;45.72;100250.03;4933748;28;98165;-55
2021/04/11 00:22:51;;;;;;;2.27;2.07;;;17.10;91.40;;;17.01;45.88;100241.59;4916403;28;98148;-54
2021/04/11 00:25:29;;;;;;;2.43;2.23;;;17.00;91.80;;;16.95;45.96;100248.22;4945358;28;96792;-55
2021/04/11 00:27:56;;;;;;;1.70;1.60;;;16.80;92.20;;;16.89;46.26;100244.13;4919709;28;97927;-54
2021/04/11 00:30:23;;;;;;;1.60;1.50;;;16.80;92.30;;;16.85;46.43;100242.66;4948388;28;99056;-55
2021/04/11 00:32:53;;;;;;;1.80;1.70;;;16.80;92.20;;;16.86;46.35;100241.69;4932236;28;99287;-52
2021/04/11 00:35:19;;;;;;;3.83;3.43;;;16.80;91.90;;;16.81;46.77;100234.97;4928535;28;97654;-56
2021/04/11 00:37:45;;;;;;;3.03;1.90;;;16.70;93.30;;;16.77;46.40;100239.63;4929992;28;97320;-55
2021/04/11 00:40:21;;;;;;;1.50;1.37;;;16.70;92.60;;;16.75;46.60;100222.91;4902474;28;118911;-54
2021/04/11 00:42:53;;;;;;;2.97;1.77;;;16.60;92.20;;;16.72;46.47;100223.13;4919072;28;99785;-55
2021/04/11 00:45:33;;;;;;;2.80;1.30;;;16.60;92.80;;;16.73;46.46;100222.16;4926001;28;100191;-54
2021/04/11 00:48:00;;;;;;;1.87;1.67;;;16.70;92.20;;;16.67;46.90;100217.28;4938035;28;98232;-55
2021/04/11 00:50:26;;;;;;;1.97;1.50;;;16.60;93.00;;;16.68;46.36;100213.66;4930168;28;99540;-55
2021/04/11 00:52:53;;;;;;;3.13;1.73;;;16.60;92.00;;;16.72;46.51;100207.16;4925605;28;97106;-57
2021/04/11 00:55:23;;;;;;;2.20;1.77;;;16.70;92.10;;;16.73;46.51;100205.34;4932511;28;99310;-56
2021/04/11 00:57:49;;;;;;;3.47;1.97;;;16.70;92.70;;;16.73;47.59;100208.84;4947245;28;97507;-55
2021/04/11 01:00:16;;;;;;;2.20;1.83;;;16.70;92.90;;;16.76;46.40;100199.81;4945279;28;98210;-55
2021/04/11 01:02:42;;;;;;;3.67;2.23;;;16.80;91.90;;;16.79;46.55;100195.13;4915205;28;97993;-53
2021/04/11 01:05:28;;;;;;;1.87;1.57;;;16.80;92.00;;;16.84;46.08;100194.81;4929698;28;98561;-56
2021/04/11 01:07:55;;;;;;;1.87;1.57;;;16.90;91.60;;;16.85;46.17;100197.38;4927450;28;99883;-54
2021/04/11 01:10:28;;;;;;;1.80;1.70;;;16.90;91.40;;;16.89;46.00;100196.19;4924211;28;102670;-54
2021/04/11 01:12:55;;;;;;;1.67;1.57;;;17.00;91.20;;;16.92;46.06;100196.00;4933868;28;98126;-55
2021/04/11 01:15:31;;;;;;;1.50;1.40;;;17.00;91.00;;;16.96;45.97;100185.97;4916166;28;97519;-55
2021/04/11 01:17:58;;;;;;;2.17;1.70;;;17.00;90.90;;;16.99;45.83;100187.56;4923186;28;99735;-56
2021/04/11 01:20:26;;;;;;;2.03;1.90;;;17.10;90.80;;;17.01;45.76;100182.97;4933340;28;99937;-55
2021/04/11 01:23:06;;;;;;;2.03;1.60;;;17.10;91.10;;;17.04;45.54;100188.09;4915129;28;97531;-56
2021/04/11 01:25:36;;;;;;;2.67;1.63;;;17.10;90.80;;;17.04;45.76;100185.44;4930831;28;101521;-55
2021/04/11 01:28:16;;;;;;;1.63;1.43;;;17.10;90.70;;;17.04;45.48;100183.63;4913220;28;98665;-54
2021/04/11 01:30:45;;;;;;;1.80;1.60;;;17.10;90.80;;;17.01;45.64;100188.31;4940421;28;97198;-54
2021/04/11 01:33:16;;;;;;;1.70;1.60;;;17.10;90.90;;;16.97;46.08;100181.50;4935685;28;97477;-56
2021/04/11 01:35:45;;;;;;;1.47;1.17;;;17.00;91.60;;;16.95;46.02;100179.81;4949248;28;99926;-56
2021/04/11 01:38:13;;;;;;;1.77;1.20;;;17.00;91.50;;;16.95;45.88;100166.47;4928968;28;97712;-56
2021/04/11 01:40:39;;;;;;;1.43;1.20;;;17.00;91.00;;;16.98;45.53;100169.88;4933573;28;99001;-56
2021/04/11 01:43:07;;;;;;;1.50;1.40;;;17.00;91.00;;;16.97;45.65;100176.19;4929635;28;97619;-56
2021/04/11 01:45:37;;;;;;;1.80;1.30;;;17.00;91.40;;;17.01;45.50;100172.31;4932336;28;97859;-53
2021/04/11 01:48:05;;;;;;;3.73;2.20;;;17.10;90.90;;;17.02;46.67;100179.34;4929010;28;99250;-56
2021/04/11 01:50:30;;;;;;;1.83;1.43;;;17.10;92.20;;;16.97;47.19;100168.19;4931401;28;98721;-56
2021/04/11 01:52:58;;;;;;;3.10;1.70;;;17.00;92.50;;;16.90;45.94;100171.25;4920924;28;97987;-55
2021/04/11 01:55:27;;;;;;;2.37;2.10;;;16.90;92.50;;;16.84;46.44;100166.38;4932026;28;97507;-54
2021/04/11 01:57:55;;;;;;;2.60;1.60;;;16.80;93.40;;;16.81;46.44;100177.25;4942938;28;99491;-57
2021/04/11 02:00:37;;;;;;;1.47;1.23;;;16.70;92.50;;;16.77;46.68;100173.06;4933021;28;106591;-56
2021/04/11 02:03:18;;;;;;;1.50;1.40;;;16.70;93.40;;;16.75;47.55;100172.31;4944650;28;99469;-55
2021/04/11 02:05:48;;;;;;;2.67;2.43;;;16.70;92.30;;;16.72;46.31;100167.22;4932018;28;98605;-53
2021/04/11 02:08:22;;;;;;;3.40;2.77;;;16.60;92.60;;;16.74;47.23;100162.63;4944985;28;98154;-54
2021/04/11 02:10:52;;;;;;;2.40;2.20;;;16.70;93.20;;;16.68;48.49;100165.72;4950597;28;98889;-55
2021/04/11 02:13:31;;;;;;;2.33;2.13;;;16.60;94.10;;;16.63;47.04;100167.78;4925912;28;105070;-56
2021/04/11 02:16:01;;;;;;;3.67;2.73;;;16.50;93.00;;;16.54;47.38;100163.13;4936519;28;98014;-55
2021/04/11 02:18:31;;;;;;;4.43;2.97;;;16.40;95.40;;;16.47;48.77;100167.13;4923937;28;97750;-57
2021/04/11 02:20:59;;;;;;;6.30;3.40;;;16.20;96.70;;;16.38;48.15;100170.44;4925082;28;98050;-53
2021/04/11 02:23:26;;;;;;;4.00;3.57;;;16.10;97.50;;;16.20;52.94;100168.06;4931344;28;98005;-53
2021/04/11 02:25:54;;;;;;;4.73;3.77;;;15.80;98.30;;;16.09;49.97;100161.72;4925797;28;97639;-61
2021/04/11 02:28:29;;;;;;;2.70;2.13;;;15.70;98.10;;;16.08;48.52;100166.22;4931748;28;98563;-56
2021/04/11 02:31:18;;;;;;;5.47;3.90;;;15.60;96.80;;;16.08;48.37;100160.03;4920898;28;99715;-55
2021/04/11 02:34:11;;;;;;;4.00;2.80;;;15.70;96.50;;;16.11;49.06;100166.00;4931470;28;99206;-53
2021/04/11 02:36:38;;;;;;;2.60;2.40;;;15.80;96.50;;;16.03;48.94;100162.97;4943422;28;97941;-55
2021/04/11 02:39:13;;;;;;;2.10;1.90;;;15.70;97.60;;;16.06;48.35;100157.47;4917649;28;98967;-55
2021/04/11 02:41:40;;;;;;;1.63;1.50;;;15.80;96.30;;;16.10;47.99;100152.78;4947185;28;97653;-53
2021/04/11 02:44:08;;;;;;;2.37;2.17;;;15.90;95.00;;;16.12;48.29;100159.72;4908978;28;99759;-55
2021/04/11 02:46:36;;;;;;;5.50;4.40;;;15.90;95.50;;;16.10;50.51;100163.44;4911291;28;98128;-56
2021/04/11 02:49:04;;;;;;;3.43;2.23;;;15.90;98.20;;;16.08;48.85;100171.53;4901133;28;98017;-55
2021/04/11 02:51:34;;;;;;;5.40;3.57;;;15.80;98.50;;;16.04;49.04;100180.63;4945734;28;100086;-55
2021/04/11 02:54:03;;;;;;;1.97;1.80;;;15.70;99.20;;;15.97;49.27;100185.53;4923333;28;98419;-54
2021/04/11 02:56:29;;;;;;;5.57;4.40;;;15.60;99.20;;;15.91;53.15;100180.63;4948101;28;98049;-55
2021/04/11 02:58:55;;;;;;;4.07;3.40;;;15.50;99.60;;;15.90;49.23;100176.22;4925567;28;98173;-54
2021/04/11 03:01:41;;;;;;;4.73;4.33;;;15.50;99.90;;;15.89;49.34;100185.16;4914053;28;100312;-55
2021/04/11 03:04:17;;;;;;;5.43;4.87;;;15.40;99.90;;;15.80;50.66;100187.56;4927561;28;99853;-54
2021/04/11 03:06:48;;;;;;;4.87;3.67;;;15.30;99.90;;;15.77;49.30;100183.31;4930378;28;99447;-53
2021/04/11 03:09:22;;;;;;;6.87;5.57;;;15.30;99.90;;;15.69;53.29;100191.78;4926498;28;99988;-55
2021/04/11 03:11:52;;;;;;;5.47;4.83;;;15.20;99.90;;;15.66;49.47;100191.97;4916233;28;99743;-54
2021/04/11 03:14:22;;;;;;;7.77;6.73;;;15.10;99.90;;;15.63;51.75;100197.50;4939971;28;101633;-55
2021/04/11 03:16:47;;;;;;;7.93;6.10;;;15.20;99.90;;;15.47;56.59;100217.97;4900580;28;98071;-53
2021/04/11 03:19:25;;;;;;;11.60;9.03;;;15.10;99.90;;;15.01;58.19;100223.47;4921928;28;105425;-56
2021/04/11 03:21:51;;;;;;;11.70;10.60;;;14.70;99.90;;;14.59;58.26;100234.84;4923490;28;99284;-56
2021/04/11 03:24:17;;;;;;;12.07;10.87;;;14.30;99.90;;;14.32;56.85;100239.94;4943788;28;121368;-56
2021/04/11 03:27:01;;;;;;;12.00;10.80;;;13.90;99.90;;;13.99;59.54;100234.75;4950791;28;103626;-56
2021/04/11 03:29:38;;;;;;;11.50;10.40;;;13.70;99.90;;;13.93;58.22;100245.72;4961673;28;97299;-53
2021/04/11 03:32:24;;;;;;;10.93;9.87;;;13.50;99.90;;;13.95;58.66;100244.69;4964500;28;97402;-53
2021/04/11 03:34:53;;;;;;;11.60;10.50;;;13.60;99.90;;;13.84;59.76;100241.75;4969843;28;98726;-55
2021/04/11 03:37:21;;;;;;;11.00;10.00;;;13.50;99.90;;;13.78;58.82;100242.13;4949799;28;97341;-55
2021/04/11 03:39:47;;;;;;;8.93;8.23;;;13.40;99.90;;;13.53;59.49;100249.69;4953178;28;97016;-52
2021/04/11 03:42:19;;;;;;;7.10;5.83;;;13.10;99.90;;;13.23;59.83;100245.09;4943993;28;113731;-52
2021/04/11 03:44:46;;;;;;;6.57;5.97;;;12.90;99.90;;;13.01;59.87;100263.00;4954744;28;98226;-53
2021/04/11 03:47:23;;;;;;;6.17;5.63;;;12.60;99.90;;;12.92;59.95;100258.19;4945410;28;97965;-56
2021/04/11 03:49:55;;;;;;;5.13;4.73;;;12.50;99.90;;;12.62;60.55;100269.41;4940441;28;97138;-54
2021/04/11 03:52:42;;;;;;;6.57;6.07;;;12.30;99.90;;;12.57;60.60;100260.81;4947006;28;104446;-54
2021/04/11 03:55:15;;;;;;;4.83;4.43;;;12.20;99.90;;;12.66;59.84;100259.53;4937413;28;97233;-55
2021/04/11 03:57:49;;;;;;;5.10;4.70;;;12.20;99.90;;;12.70;59.01;100261.06;4949310;28;97582;-55
2021/04/11 04:00:19;;;;;;;4.60;4.20;;;12.30;99.90;;;12.63;59.80;100260.53;4950130;28;97421;-52
2021/04/11 04:02:46;;;;;;;4.20;3.90;;;12.20;99.90;;;12.71;59.40;100268.94;4938843;28;98697;-53
2021/04/11 04:05:21;;;;;;;5.10;4.60;;;12.30;99.90;;;12.62;59.84;100268.56;4946376;28;99066;-54
2021/04/11 04:07:51;;;;;;;5.77;5.27;;;12.20;99.90;;;12.70;59.48;100277.81;4951014;28;97466;-54
2021/04/11 04:10:21;;;;;;;6.50;5.80;;;12.20;99.90;;;12.58;59.71;100277.56;4949343;28;100161;-52
2021/04/11 04:13:05;;;;;;;6.77;6.17;;;12.20;99.90;;;12.61;59.35;100278.28;4952373;28;97713;-54
2021/04/11 04:15:44;;;;;;;7.00;6.40;;;12.10;99.90;;;12.49;59.64;100278.88;4961191;28;101162;-56
2021/04/11 04:18:18;;;;;;;6.97;6.37;;;12.10;99.90;;;12.50;59.70;100285.88;4947235;28;97525;-54
2021/04/11 04:20:50;;;;;;;8.40;7.70;;;12.00;99.90;;;12.48;59.07;100293.06;4954712;28;96739;-55
2021/04/11 04:24:06;;;;;;;9.30;8.50;;;12.00;99.90;;;12.40;59.95;100303.13;4948030;28;97840;-55
2021/04/11 04:27:01;;;;;;;10.37;9.37;;;11.90;99.90;;;12.40;60.29;100301.34;4961918;28;103129;-54
2021/04/11 04:30:11;;;;;;;7.17;6.53;;;11.90;99.90;;;12.62;59.24;100295.03;4948643;28;98744;-53
2021/04/11 04:33:13;;;;;;;9.93;9.03;;;12.00;99.90;;;12.65;59.20;100301.00;4932165;28;98689;-54
2021/04/11 04:35:52;;;;;;;5.83;5.30;;;12.10;99.90;;;12.83;58.33;100299.22;4950854;28;100515;-53
2021/04/11 04:38:48;;;;;;;6.47;5.97;;;12.20;99.90;;;12.78;57.57;100302.09;4962149;28;100241;-51
2021/04/11 04:41:40;;;;;;;9.27;8.37;;;12.30;99.90;;;12.93;57.35;100310.22;4945064;28;102969;-51
2021/04/11 04:44:46;;;;;;;9.17;8.27;;;12.40;99.90;;;12.78;56.41;100315.34;4929999;28;97765;-51
2021/04/11 04:47:59;;;;;;;8.70;7.90;;;12.20;99.90;;;12.94;56.58;100317.22;4944409;28;99738;-53
2021/04/11 04:50:38;;;;;;;8.30;7.57;;;12.30;99.90;;;12.74;56.36;100327.03;4948183;28;101396;-54
2021/04/11 04:53:10;;;;;;;6.37;5.80;;;12.30;99.90;;;12.89;57.03;100321.91;4934097;28;97318;-52
2021/04/11 04:55:40;;;;;;;8.23;7.53;;;12.30;99.90;;;12.59;56.33;100332.22;4965894;28;97271;-54
2021/04/11 04:58:18;;;;;;;7.63;6.97;;;12.10;99.90;;;12.41;57.01;100332.16;4947167;28;98110;-54
2021/04/11 05:01:00;;;;;;;6.57;6.07;;;11.90;99.90;;;12.52;56.56;100336.94;4970911;28;97228;-54
2021/04/11 05:03:36;;;;;;;5.93;5.43;;;12.00;99.90;;;12.18;56.74;100350.91;4931938;28;97776;-55
2021/04/11 05:06:14;;;;;;;5.87;5.37;;;11.70;99.90;;;11.94;57.82;100354.69;4932722;28;97313;-54
2021/04/11 05:08:56;;;;;;;6.90;6.30;;;11.40;99.90;;;11.69;57.12;100354.91;4937523;28;100039;-54
2021/04/11 05:11:47;;;;;;;7.60;6.90;;;11.20;99.90;;;11.34;57.86;100359.97;4929924;28;99958;-53
2021/04/11 05:14:20;;;;;;;7.87;7.17;;;11.00;99.90;;;11.40;57.77;100370.25;4948411;28;97806;-53
2021/04/11 05:16:54;;;;;;;9.30;8.40;;;11.00;99.90;;;11.31;58.73;100368.03;4958395;28;97213;-53
2021/04/11 05:19:34;;;;;;;9.53;8.53;;;10.80;99.90;;;11.30;59.06;100379.53;4963437;28;100554;-51
2021/04/11 05:22:15;;;;;;;9.57;8.67;;;10.80;99.90;;;11.44;59.13;100385.06;4928395;28;96973;-52
2021/04/11 05:24:49;;;;;;;8.70;7.90;;;10.90;99.90;;;11.64;57.10;100400.03;4950279;28;97634;-54
2021/04/11 05:27:29;;;;;;;10.27;9.27;;;11.30;99.90;;;11.46;57.53;100388.50;4946863;28;98056;-55
2021/04/11 05:30:18;;;;;;;10.20;9.27;;;11.10;99.90;;;11.60;57.72;100383.47;4947028;28;99954;-56
2021/04/11 05:32:48;;;;;;;10.60;9.67;;;11.20;99.90;;;11.62;57.36;100396.59;4935832;28;99327;-54
2021/04/11 05:35:14;;;;;;;10.87;9.87;;;11.10;99.90;;;11.66;58.17;100405.25;4950578;28;100138;-55
2021/04/11 05:37:52;;;;;;;8.03;7.23;;;11.10;99.90;;;11.72;57.16;100413.78;4950478;28;97861;-52
2021/04/11 05:40:36;;;;;;;7.00;6.30;;;11.20;99.90;;;11.56;56.24;100418.84;4971298;28;103229;-55
2021/04/11 05:43:34;;;;;;;6.70;6.10;;;11.10;99.90;;;11.47;56.62;100427.19;4961567;28;99950;-51
2021/04/11 05:46:18;;;;;;;6.50;5.90;;;11.00;99.90;;;11.17;57.52;100431.13;4947939;28;98859;-53
2021/04/11 05:49:09;;;;;;;6.87;6.00;;;10.70;99.90;;;10.83;57.27;100432.47;4948781;28;96817;-54
2021/04/11 05:51:44;;;;;;;6.40;5.80;;;10.50;99.90;;;10.99;59.27;100427.44;4963967;28;101815;-53
2021/04/11 05:54:49;;;;;;;7.07;6.43;;;10.50;99.90;;;10.64;58.49;100442.91;4945976;28;97118;-56
2021/04/11 05:57:30;;;;;;;6.73;6.13;;;10.30;99.90;;;10.36;59.21;100447.53;4942420;28;96954;-55
2021/04/11 06:00:10;;;;;;;7.20;6.60;;;10.00;99.90;;;10.53;60.94;100444.25;4940973;28;97059;-54
2021/04/11 06:02:46;;;;;;;7.30;6.60;;;10.00;99.90;;;10.76;60.96;100452.13;4954260;28;97333;-51
2021/04/11 06:05:31;;;;;;;6.53;5.93;;;10.20;99.90;;;10.75;57.12;100460.13;4928539;28;97989;-56
2021/04/11 06:08:10;;;;;;;6.90;6.30;;;10.40;99.90;;;10.49;58.10;100461.97;4947683;28;97097;-53
2021/04/11 06:10:48;;;;;;;7.13;6.50;;;10.10;99.90;;;10.76;57.60;100462.69;4945742;28;98618;-54
2021/04/11 06:13:23;;;;;;;7.10;6.50;;;10.30;99.90;;;10.58;57.22;100452.88;4948906;28;100024;-57
2021/04/11 06:15:59;;;;;;;7.57;6.87;;;10.20;99.90;;;10.55;57.79;100466.13;4948562;28;98536;-53
2021/04/11 06:18:25;;;;;;;6.93;6.40;;;10.20;99.90;;;10.45;58.55;100472.72;4930922;28;97943;-54
2021/04/11 06:20:53;;;;;;;7.17;6.57;;;10.00;99.90;;;10.49;61.11;100471.66;4948922;28;97428;-54
2021/04/11 06:23:24;;;;;;;8.20;7.40;;;9.90;99.90;;;10.56;60.52;100475.78;4947140;28;102712;-52
2021/04/11 06:25:55;;;;;;;6.80;6.20;;;10.00;99.90;;;10.74;59.78;100498.81;4962847;28;97446;-52
2021/04/11 06:28:44;;;;;;;7.80;7.17;;;10.20;99.90;;;10.93;57.48;100507.72;4945501;28;97935;-53
2021/04/11 06:31:20;;;;;;;8.47;7.67;;;10.50;99.90;;;11.02;58.11;100498.59;4927911;28;97358;-53
2021/04/11 06:33:51;;;;;;;9.10;8.30;;;10.50;99.90;;;10.96;56.61;100491.78;4961639;28;99433;-55
2021/04/11 06:36:36;;;;;;;9.70;8.80;;;10.50;99.90;;;11.02;57.99;100486.25;4961603;28;101011;-55
2021/04/11 06:39:12;;;;;;;9.87;9.03;;;10.50;99.90;;;11.19;57.67;100487.38;4941038;28;97481;-53
2021/04/11 06:41:47;;;;;;;10.57;9.57;;;10.60;99.90;;;11.19;58.17;100495.28;4950330;28;97412;-54
2021/04/11 06:44:24;;;;;;;10.03;9.13;;;10.70;99.90;;;11.47;57.02;100509.06;4946271;28;100308;-51
2021/04/11 06:47:47;;;;;;;10.33;9.43;;;10.90;99.90;;;11.10;57.33;100508.84;4949921;28;97373;-53
2021/04/11 06:51:10;;;;;;;11.07;10.07;;;10.60;99.90;;;11.20;58.91;100515.47;4882040;28;99455;-54
2021/04/11 06:54:22;;;;;;;12.33;11.13;;;10.50;99.90;;;11.22;55.84;100513.63;4868086;28;99252;-52
2021/04/11 06:57:35;;;;;;;11.33;10.23;;;10.80;99.90;;;10.74;56.33;100512.03;4958931;28;103370;-53
2021/04/11 07:00:55;;;;;;;12.97;11.20;;;10.40;99.90;;;10.27;58.15;100522.56;4880436;28;102538;-52
2021/04/11 07:03:54;;;;;;;14.33;11.80;;;9.80;99.90;;;10.28;57.69;100524.28;4944690;28;99864;-54
2021/04/11 07:06:57;;;;;;;12.73;11.43;;;9.80;99.90;;;10.50;58.92;100528.75;4965470;28;96967;-52
2021/04/11 07:09:45;;;;;;;12.90;11.60;;;10.00;99.90;;;10.48;57.50;100525.31;4950753;28;102889;-55
2021/04/11 07:13:00;;;;;;;15.53;13.63;;;10.10;99.90;;;10.14;58.11;100526.53;4963458;28;97245;-55
2021/04/11 07:15:53;;;;;;;12.47;11.17;;;9.80;99.90;;;10.15;58.41;100525.63;4963490;28;98174;-51
2021/04/11 07:18:59;;;;;;;11.53;10.33;;;9.70;99.90;;;10.10;60.63;100531.03;4966767;28;97667;-54
2021/04/11 07:21:58;;;;;;;10.53;9.43;;;9.50;99.90;;;10.06;59.70;100536.47;4965027;28;101789;-52
2021/04/11 07:24:42;;;;;;;11.13;9.93;;;9.60;99.90;;;9.93;60.26;100541.31;4964037;28;101943;-55
2021/04/11 07:27:31;;;;;;;11.07;9.37;;;9.40;99.90;;;10.03;59.87;100541.88;4961531;28;97540;-57
2021/04/11 07:30:51;;;;;;;11.43;9.70;;;9.60;99.90;;;10.05;58.92;100543.53;4950053;28;96971;-52
2021/04/11 07:34:08;;;;;;;10.87;9.63;;;9.60;99.90;;;9.75;58.96;100550.72;4929648;28;97670;-55
2021/04/11 07:36:42;;;;;;;11.33;9.93;;;9.30;99.90;;;9.64;60.28;100542.31;4945173;28;101397;-52
2021/04/11 07:39:28;;;;;;;11.17;10.03;;;9.20;99.90;;;9.58;60.40;100553.06;4945606;28;106647;-53
2021/04/11 07:42:41;;;;;;;11.13;9.97;;;9.10;99.90;;;9.76;61.18;100552.44;4960147;28;96961;-53
2021/04/11 07:45:50;;;;;;;9.07;8.17;;;9.20;99.90;;;10.02;62.19;100558.59;4945656;28;99311;-53
2021/04/11 07:48:50;;;;;;;7.67;6.90;;;9.40;99.90;;;9.91;59.15;100566.84;4947382;28;99504;-52
2021/04/11 07:51:57;;;;;;;7.43;6.73;;;9.50;99.90;;;10.00;61.56;100560.44;4967871;28;97223;-54
2021/04/11 07:54:45;;;;;;;7.30;6.60;;;9.40;99.90;;;9.89;60.30;100562.56;4932130;28;100160;-52
2021/04/11 07:57:23;;;;;;;7.23;6.53;;;9.50;99.90;;;10.28;61.28;100565.63;4950984;28;99784;-54
2021/04/11 08:00:20;;;;;;;8.43;7.53;;;9.70;99.90;;;10.25;58.07;100577.09;4937851;28;97224;-56
2021/04/11 08:03:13;;;;;;;6.80;6.20;;;9.80;99.90;;;10.42;59.71;100590.56;4931590;28;98054;-55
2021/04/11 08:06:28;;;;;;;8.33;7.03;;;9.90;99.90;;;10.40;59.18;100592.38;4960178;28;97130;-53
2021/04/11 08:09:19;;;;;;;9.13;7.60;;;9.80;99.90;;;10.53;59.26;100591.94;4940882;28;104814;-54
2021/04/11 08:12:20;;;;;;;8.13;7.27;;;9.90;99.90;;;10.11;57.54;100598.63;4966665;28;97505;-51
2021/04/11 08:15:00;;;;;;;9.07;8.17;;;9.70;99.90;;;10.16;59.06;100598.50;4965713;28;98680;-52
2021/04/11 08:18:01;;;;;;;10.00;8.37;;;9.70;99.90;;;9.90;58.48;100611.69;4963552;28;98821;-55
2021/04/11 08:20:40;;;;;;;7.73;7.00;;;9.40;99.90;;;10.08;60.57;100605.81;4948606;28;101648;-56
2021/04/11 08:23:27;;;;;;;7.40;6.70;;;9.60;99.90;;;10.24;58.94;100624.63;4959533;28;97598;-54
2021/04/11 08:26:27;;;;;;;8.10;7.40;;;9.70;99.90;;;10.23;58.34;100625.53;4940881;28;97419;-58
2021/04/11 08:29:27;;;;;;;8.00;7.30;;;9.70;99.90;;;10.36;59.25;100638.22;4944514;28;98745;-60
2021/04/11 08:32:08;;;;;;;8.10;7.30;;;9.90;99.90;;;10.39;59.33;100635.47;4942200;28;104116;-60
2021/04/11 08:34:58;;;;;;;7.33;6.63;;;9.80;99.90;;;10.61;58.88;100647.94;4929233;28;102945;-53
2021/04/11 08:37:48;;;;;;;7.10;6.40;;;10.00;99.90;;;10.57;58.00;100641.06;4960719;28;96972;-52
2021/04/11 08:41:04;;;;;;;7.67;6.97;;;10.00;99.90;;;10.65;56.87;100646.88;4946217;28;97216;-54
2021/04/11 08:43:52;;;;;;;8.83;7.93;;;10.10;99.90;;;10.65;58.13;100657.44;4926284;28;103907;-55
2021/04/11 08:46:44;;;;;;;13.60;12.10;;;10.00;99.90;;;10.41;58.04;100662.69;4953530;28;102729;-56
2021/04/11 08:49:24;;;;;;;8.73;7.93;;;9.80;99.90;;;10.53;59.61;100666.66;4961236;28;97516;-57
2021/04/11 08:52:02;;;;;;;6.37;5.77;;;9.90;99.90;;;10.88;56.73;100668.03;4937732;28;98490;-54
2021/04/11 08:54:47;;;;;;;6.57;5.97;;;10.40;99.90;;;10.87;57.01;100666.31;4944147;28;102937;-55
2021/04/11 08:57:49;;;;;;;4.10;3.80;;;10.40;99.90;;;10.53;55.76;100671.06;4945381;28;99806;-55
2021/04/11 09:00:42;;;;;;;3.80;3.50;;;10.10;99.90;;;10.35;56.73;100678.69;4941603;28;96944;-56
2021/04/11 09:03:07;;;;;;;4.77;4.40;;;9.80;99.90;;;10.18;57.75;100681.03;4949067;28;100451;-55
2021/04/11 09:06:14;;;;;;;4.17;3.77;;;9.60;99.90;;;10.32;59.92;100672.69;4950057;28;103090;-54
2021/04/11 09:09:16;;;;;;;4.23;3.80;;;9.60;99.90;;;10.53;59.05;100679.84;4944156;28;103485;-52
2021/04/11 09:11:58;;;;;;;4.30;3.90;;;9.80;99.90;;;10.43;57.91;100671.41;4947255;28;101962;-55
2021/04/11 09:15:01;;;;;;;3.63;3.33;;;9.90;99.90;;;10.54;59.24;100678.06;4949753;28;98715;-56
2021/04/11 09:17:55;;;;;;;3.43;3.13;;;9.90;99.90;;;10.49;58.78;100688.78;4940918;28;103699;-54
2021/04/11 09:20:46;;;;;;;3.87;3.57;;;9.80;99.90;;;10.16;58.48;100693.41;4959272;28;103439;-50
2021/04/11 09:23:35;;;;;;;3.87;3.30;;;9.60;99.90;;;10.38;60.38;100693.56;4906199;28;97398;-55
2021/04/11 09:26:39;;;;;;;4.50;4.10;;;9.80;99.90;;;10.40;59.30;100697.84;4932051;28;99334;-56
2021/04/11 09:29:28;;;;;;;5.40;4.90;;;9.80;99.90;;;10.56;57.01;100702.59;4958789;28;97580;-55
2021/04/11 09:32:07;;;;;;;5.60;5.10;;;10.10;99.90;;;10.77;55.70;100707.13;4941463;28;98150;-54
2021/04/11 09:34:56;;;;;;;4.40;4.07;;;10.30;99.90;;;10.54;55.89;100709.72;4949382;28;97637;-53
2021/04/11 09:38:06;;;;;;;3.87;3.57;;;10.00;99.90;;;10.54;55.74;100714.97;4939025;28;96779;-55
2021/04/11 09:41:26;;;;;;;3.60;2.77;;;10.00;99.90;;;10.30;56.00;100712.28;4960673;28;102209;-54
2021/04/11 09:44:21;;;;;;;3.00;2.70;;;9.80;99.90;;;10.07;57.95;100720.03;4963170;28;102458;-51
2021/04/11 09:46:56;;;;;;;2.60;2.40;;;9.50;99.90;;;10.13;56.15;100727.78;4944973;28;99906;-56
2021/04/11 09:49:49;;;;;;;2.43;2.30;;;9.70;99.90;;;10.09;57.06;100729.63;4955089;28;98705;-53
2021/04/11 09:52:49;;;;;;;2.87;2.67;;;9.60;99.90;;;9.89;58.84;100721.50;4961617;28;97141;-54
2021/04/11 09:55:25;;;;;;;2.77;2.57;;;9.40;99.90;;;10.02;58.65;100724.63;4956452;28;96854;-56
2021/04/11 09:58:40;;;;;;;2.43;2.33;;;9.50;99.90;;;10.18;58.89;100724.97;4931495;28;97054;-56
2021/04/11 10:01:34;;;;;;;3.83;3.17;;;9.60;99.90;;;10.30;58.13;100720.19;4940279;28;97351;-53
2021/04/11 10:04:30;;;;;;;2.97;2.57;;;9.80;99.90;;;10.35;57.36;100730.56;4947318;28;98099;-54
2021/04/11 10:07:42;;;;;;;5.27;4.77;;;9.80;99.90;;;10.62;57.92;100729.66;4944384;28;97443;-52
2021/04/11 10:10:21;;;;;;;4.73;4.33;;;10.00;99.90;;;10.46;56.68;100730.22;4943537;28;97938;-54
2021/04/11 10:13:34;;;;;;;4.60;4.20;;;9.90;99.90;;;10.61;57.54;100727.06;4947659;28;97399;-55
2021/04/11 10:16:49;;;;;;;3.83;3.53;;;10.00;99.90;;;10.74;55.49;100741.56;4956219;28;100383;-58
2021/04/11 10:19:44;;;;;;;4.43;4.03;;;10.30;99.90;;;10.75;55.27;100743.28;4957277;28;97256;-56
2021/04/11 10:22:37;;;;;;;4.93;4.53;;;10.30;99.90;;;10.84;57.86;100756.13;4946025;28;97592;-55
2021/04/11 10:25:09;;;;;;;5.93;5.43;;;10.10;99.90;;;10.66;56.31;100751.50;4938725;28;98139;-56
2021/04/11 10:27:49;;;;;;;8.40;7.60;;;10.10;99.90;;;10.60;55.94;100757.84;4946872;28;99513;-54
2021/04/11 10:30:17;;;;;;;9.13;8.10;;;10.10;99.90;;;10.53;55.53;100768.66;4941092;28;97472;-53
2021/04/11 10:32:56;;;;;;;6.20;5.60;;;10.10;99.90;;;10.56;56.78;100772.06;4950967;28;97137;-57
2021/04/11 10:35:41;;;;;;;8.13;7.37;;;10.00;99.90;;;10.65;56.96;100777.00;4965521;28;97020;-56
2021/04/11 10:38:23;;;;;;;7.07;6.47;;;10.10;99.90;;;10.75;57.75;100782.84;4914433;28;99004;-55
2021/04/11 10:41:12;;;;;;;7.87;7.23;;;10.10;99.90;;;10.99;57.43;100797.84;4932078;28;97694;-54
2021/04/11 10:44:15;;;;;;;6.83;6.23;;;10.40;99.90;;;11.19;57.22;100796.25;4938151;28;98045;-55
2021/04/11 10:47:54;;;;;;;6.73;6.13;;;10.60;99.90;;;11.14;56.58;100796.44;4928574;28;98637;-54
2021/04/11 10:50:44;;;;;;;7.93;7.23;;;10.50;99.90;;;11.10;56.47;100799.22;4827248;28;100588;-53
2021/04/11 10:53:44;;;;;;;7.30;6.60;;;10.50;99.90;;;11.14;55.61;100795.53;4938354;28;98194;-54
2021/04/11 10:56:36;;;;;;;7.10;6.40;;;10.50;99.90;;;10.95;56.58;100785.66;4936956;28;99181;-56
2021/04/11 10:59:08;;;;;;;7.47;6.77;;;10.40;99.90;;;11.24;56.18;100799.59;4925655;28;98404;-55
2021/04/11 11:02:04;;;;;;;7.07;6.47;;;10.70;99.90;;;11.45;54.82;100805.88;4930418;28;100356;-52
2021/04/11 11:05:14;;;;;;;6.37;5.87;;;10.90;99.90;;;11.74;55.30;100796.88;4928148;28;103149;-54
2021/04/11 11:08:40;;;;;;;6.70;6.13;;;11.20;99.90;;;11.57;55.69;100806.28;4934664;28;100629;-54
2021/04/11 11:11:31;;;;;;;7.00;6.40;;;11.00;99.90;;;11.93;54.11;100808.47;4900152;28;99382;-54
2021/04/11 11:14:37;;;;;;;6.70;6.17;;;11.50;99.90;;;11.97;54.65;100815.34;4924819;28;98863;-55